sensor_id;sensor_type;location;lat;lon;timestamp;pressure;altitude;pressure_sealevel;temperature;humidity
61757;BME280;57225;61.460;24.060;2022-07-18T00:00:18;100097.72;;;11.84;92.93
61757;BME280;57225;61.460;24.060;2022-07-18T00:03:03;100089.72;;;11.86;92.77
61757;BME280;57225;61.460;24.060;2022-07-18T00:05:47;100096.13;;;11.87;92.46
61757;BME280;57225;61.460;24.060;2022-07-18T00:08:31;100092.53;;;11.86;92.65
61757;BME280;57225;61.460;24.060;2022-07-18T00:11:16;100087.72;;;11.87;92.33
61757;BME280;57225;61.460;24.060;2022-07-18T00:14:00;100088.09;;;11.89;92.49
61757;BME280;57225;61.460;24.060;2022-07-18T00:16:45;100083.75;;;11.88;92.28
61757;BME280;57225;61.460;24.060;2022-07-18T00:19:29;100085.34;;;11.85;92.28
61757;BME280;57225;61.460;24.060;2022-07-18T00:22:14;100094.53;;;11.86;92.50
61757;BME280;57225;61.460;24.060;2022-07-18T00:24:58;100087.34;;;11.85;92.20
61757;BME280;57225;61.460;24.060;2022-07-18T00:27:45;100087.72;;;11.87;91.95
61757;BME280;57225;61.460;24.060;2022-07-18T00:30:29;100094.91;;;11.88;91.84
61757;BME280;57225;61.460;24.060;2022-07-18T00:33:15;100091.78;;;11.82;92.15
61757;BME280;57225;61.460;24.060;2022-07-18T00:35:59;100080.22;;;11.77;91.86
61757;BME280;57225;61.460;24.060;2022-07-18T00:38:44;100083.84;;;11.74;91.87
61757;BME280;57225;61.460;24.060;2022-07-18T00:41:28;100087.41;;;11.70;92.10
61757;BME280;57225;61.460;24.060;2022-07-18T00:44:17;100089.06;;;11.68;91.77
61757;BME280;57225;61.460;24.060;2022-07-18T00:47:02;100085.88;;;11.66;91.75
61757;BME280;57225;61.460;24.060;2022-07-18T00:49:47;100087.47;;;11.63;92.36
61757;BME280;57225;61.460;24.060;2022-07-18T00:52:31;100090.72;;;11.58;92.73
61757;BME280;57225;61.460;24.060;2022-07-18T00:55:16;100093.06;;;11.63;92.57
61757;BME280;57225;61.460;24.060;2022-07-18T00:58:00;100093.84;;;11.64;93.13
61757;BME280;57225;61.460;24.060;2022-07-18T01:00:45;100095.44;;;11.65;92.86
61757;BME280;57225;61.460;24.060;2022-07-18T01:03:48;100097.03;;;11.66;92.56
61757;BME280;57225;61.460;24.060;2022-07-18T01:06:33;100100.25;;;11.64;92.31
61757;BME280;57225;61.460;24.060;2022-07-18T01:09:18;100097.44;;;11.64;91.99
61757;BME280;57225;61.460;24.060;2022-07-18T01:12:03;100097.09;;;11.62;91.68
61757;BME280;57225;61.460;24.060;2022-07-18T01:14:48;100097.88;;;11.63;92.30
61757;BME280;57225;61.460;24.060;2022-07-18T01:17:32;100094.28;;;11.62;92.20
61757;BME280;57225;61.460;24.060;2022-07-18T01:20:19;100090.66;;;11.65;91.71
61757;BME280;57225;61.460;24.060;2022-07-18T01:23:04;100097.84;;;11.66;91.92
61757;BME280;57225;61.460;24.060;2022-07-18T01:25:48;100097.03;;;11.66;91.82
61757;BME280;57225;61.460;24.060;2022-07-18T01:28:32;100096.25;;;11.65;91.93
61757;BME280;57225;61.460;24.060;2022-07-18T01:31:17;100089.91;;;11.61;91.86
61757;BME280;57225;61.460;24.060;2022-07-18T01:34:02;100102.66;;;11.62;91.42
61757;BME280;57225;61.460;24.060;2022-07-18T01:36:47;100105.81;;;11.64;91.30
61757;BME280;57225;61.460;24.060;2022-07-18T01:39:31;100105.81;;;11.64;92.16
61757;BME280;57225;61.460;24.060;2022-07-18T01:42:15;100110.59;;;11.67;91.92
61757;BME280;57225;61.460;24.060;2022-07-18T01:45:00;100106.22;;;11.66;92.44
61757;BME280;57225;61.460;24.060;2022-07-18T01:47:44;100113.78;;;11.69;91.30
61757;BME280;57225;61.460;24.060;2022-07-18T01:50:29;100105.00;;;11.67;91.66
61757;BME280;57225;61.460;24.060;2022-07-18T01:53:13;100108.19;;;11.69;91.53
61757;BME280;57225;61.460;24.060;2022-07-18T01:55:57;100118.94;;;11.71;91.58
61757;BME280;57225;61.460;24.060;2022-07-18T01:58:42;100118.53;;;11.76;89.97
61757;BME280;57225;61.460;24.060;2022-07-18T02:01:26;100110.56;;;11.75;90.28
61757;BME280;57225;61.460;24.060;2022-07-18T02:04:11;100110.13;;;11.76;90.71
61757;BME280;57225;61.460;24.060;2022-07-18T02:06:56;100112.91;;;11.80;90.60
61757;BME280;57225;61.460;24.060;2022-07-18T02:09:40;100106.47;;;11.86;90.25
61757;BME280;57225;61.460;24.060;2022-07-18T02:12:25;100110.47;;;11.85;90.11
61757;BME280;57225;61.460;24.060;2022-07-18T02:15:11;100116.06;;;11.85;90.23
61757;BME280;57225;61.460;24.060;2022-07-18T02:17:56;100111.22;;;11.93;90.07
61757;BME280;57225;61.460;24.060;2022-07-18T02:20:41;100115.97;;;11.96;89.83
61757;BME280;57225;61.460;24.060;2022-07-18T02:23:26;100112.75;;;11.97;90.43
61757;BME280;57225;61.460;24.060;2022-07-18T02:26:13;100102.84;;;11.93;90.37
61757;BME280;57225;61.460;24.060;2022-07-18T02:28:57;100111.16;;;12.00;90.02
61757;BME280;57225;61.460;24.060;2022-07-18T02:31:42;100098.03;;;11.93;89.87
61757;BME280;57225;61.460;24.060;2022-07-18T02:34:26;100107.91;;;12.05;89.87
61757;BME280;57225;61.460;24.060;2022-07-18T02:37:11;100112.63;;;12.12;90.53
61757;BME280;57225;61.460;24.060;2022-07-18T02:39:55;100105.41;;;12.18;90.45
61757;BME280;57225;61.460;24.060;2022-07-18T02:42:39;100108.56;;;12.20;90.14
61757;BME280;57225;61.460;24.060;2022-07-18T02:45:24;100099.69;;;12.28;89.67
61757;BME280;57225;61.460;24.060;2022-07-18T02:48:09;100100.81;;;12.34;89.28
61757;BME280;57225;61.460;24.060;2022-07-18T02:50:53;100100.34;;;12.43;88.74
61757;BME280;57225;61.460;24.060;2022-07-18T02:53:38;100099.09;;;12.47;88.20
61757;BME280;57225;61.460;24.060;2022-07-18T02:56:22;100102.59;;;12.55;87.90
61757;BME280;57225;61.460;24.060;2022-07-18T02:59:07;100095.38;;;12.58;87.30
61757;BME280;57225;61.460;24.060;2022-07-18T03:01:52;100099.66;;;12.66;87.05
61757;BME280;57225;61.460;24.060;2022-07-18T03:04:39;100088.56;;;12.59;87.14
61757;BME280;57225;61.460;24.060;2022-07-18T03:07:24;100096.06;;;12.65;86.67
61757;BME280;57225;61.460;24.060;2022-07-18T03:10:10;100097.31;;;12.64;86.17
61757;BME280;57225;61.460;24.060;2022-07-18T03:12:54;100104.81;;;12.71;87.01
61757;BME280;57225;61.460;24.060;2022-07-18T03:15:40;100107.19;;;12.72;86.91
61757;BME280;57225;61.460;24.060;2022-07-18T03:18:24;100108.09;;;12.62;86.58
61757;BME280;57225;61.460;24.060;2022-07-18T03:21:10;100112.09;;;12.61;86.99
61757;BME280;57225;61.460;24.060;2022-07-18T03:23:54;100120.44;;;12.65;86.94
61757;BME280;57225;61.460;24.060;2022-07-18T03:26:39;100114.50;;;12.63;86.30
61757;BME280;57225;61.460;24.060;2022-07-18T03:29:24;100115.25;;;12.67;86.76
61757;BME280;57225;61.460;24.060;2022-07-18T03:32:08;100116.03;;;12.67;86.63
61757;BME280;57225;61.460;24.060;2022-07-18T03:34:52;100121.59;;;12.71;87.01
61757;BME280;57225;61.460;24.060;2022-07-18T03:37:37;100120.75;;;12.74;87.35
61757;BME280;57225;61.460;24.060;2022-07-18T03:40:21;100116.78;;;12.71;86.27
61757;BME280;57225;61.460;24.060;2022-07-18T03:43:06;100121.59;;;12.71;86.52
61757;BME280;57225;61.460;24.060;2022-07-18T03:45:51;100129.53;;;12.76;85.96
61757;BME280;57225;61.460;24.060;2022-07-18T03:48:35;100121.47;;;12.81;86.01
61757;BME280;57225;61.460;24.060;2022-07-18T03:51:20;100123.47;;;12.81;86.37
61757;BME280;57225;61.460;24.060;2022-07-18T03:54:04;100117.41;;;12.86;86.22
61757;BME280;57225;61.460;24.060;2022-07-18T03:56:50;100118.91;;;12.94;86.07
61757;BME280;57225;61.460;24.060;2022-07-18T03:59:34;100122.09;;;12.96;85.24
61757;BME280;57225;61.460;24.060;2022-07-18T04:02:21;100122.03;;;13.00;85.58
61757;BME280;57225;61.460;24.060;2022-07-18T04:05:06;100136.72;;;13.07;85.58
61757;BME280;57225;61.460;24.060;2022-07-18T04:07:53;100126.69;;;13.10;85.37
61757;BME280;57225;61.460;24.060;2022-07-18T04:10:37;100131.81;;;13.18;85.54
61757;BME280;57225;61.460;24.060;2022-07-18T04:13:24;100130.03;;;13.32;85.21
61757;BME280;57225;61.460;24.060;2022-07-18T04:16:08;100132.72;;;13.39;84.98
61757;BME280;57225;61.460;24.060;2022-07-18T04:18:52;100128.66;;;13.43;84.52
61757;BME280;57225;61.460;24.060;2022-07-18T04:21:36;100125.22;;;13.59;83.67
61757;BME280;57225;61.460;24.060;2022-07-18T04:24:21;100127.91;;;13.66;83.36
61757;BME280;57225;61.460;24.060;2022-07-18T04:27:05;100134.50;;;13.79;83.13
61757;BME280;57225;61.460;24.060;2022-07-18T04:29:50;100133.06;;;13.94;82.26
61757;BME280;57225;61.460;24.060;2022-07-18T04:32:34;100120.03;;;13.84;81.44
61757;BME280;57225;61.460;24.060;2022-07-18T04:35:19;100130.13;;;14.01;81.24
61757;BME280;57225;61.460;24.060;2022-07-18T04:38:04;100134.63;;;14.19;80.72
61757;BME280;57225;61.460;24.060;2022-07-18T04:40:48;100136.59;;;14.22;80.96
61757;BME280;57225;61.460;24.060;2022-07-18T04:43:33;100118.81;;;14.08;79.60
61757;BME280;57225;61.460;24.060;2022-07-18T04:46:17;100133.41;;;14.20;79.83
61757;BME280;57225;61.460;24.060;2022-07-18T04:49:02;100136.81;;;14.31;80.93
61757;BME280;57225;61.460;24.060;2022-07-18T04:51:46;100141.94;;;14.36;80.66
61757;BME280;57225;61.460;24.060;2022-07-18T04:54:31;100138.31;;;14.39;80.18
61757;BME280;57225;61.460;24.060;2022-07-18T04:57:15;100134.63;;;14.42;80.34
61757;BME280;57225;61.460;24.060;2022-07-18T04:59:59;100136.50;;;14.48;79.63
61757;BME280;57225;61.460;24.060;2022-07-18T05:02:47;100129.00;;;14.65;79.55
61757;BME280;57225;61.460;24.060;2022-07-18T05:05:31;100134.53;;;14.69;78.86
61757;BME280;57225;61.460;24.060;2022-07-18T05:08:16;100136.81;;;14.74;78.89
61757;BME280;57225;61.460;24.060;2022-07-18T05:11:00;100140.28;;;14.81;78.97
61757;BME280;57225;61.460;24.060;2022-07-18T05:13:45;100140.56;;;14.87;79.07
61757;BME280;57225;61.460;24.060;2022-07-18T05:16:29;100132.28;;;15.19;78.00
61757;BME280;57225;61.460;24.060;2022-07-18T05:19:13;100130.44;;;15.49;75.36
61757;BME280;57225;61.460;24.060;2022-07-18T05:21:59;100132.00;;;15.86;73.89
61757;BME280;57225;61.460;24.060;2022-07-18T05:24:44;100133.13;;;16.04;73.57
61757;BME280;57225;61.460;24.060;2022-07-18T05:27:29;100141.59;;;16.33;72.76
61757;BME280;57225;61.460;24.060;2022-07-18T05:30:14;100136.53;;;16.28;71.72
61757;BME280;57225;61.460;24.060;2022-07-18T05:32:59;100127.97;;;16.32;72.25
61757;BME280;57225;61.460;24.060;2022-07-18T05:35:43;100126.88;;;15.97;69.74
61757;BME280;57225;61.460;24.060;2022-07-18T05:38:27;100135.50;;;15.90;71.18
61757;BME280;57225;61.460;24.060;2022-07-18T05:41:12;100134.16;;;15.78;72.95
61757;BME280;57225;61.460;24.060;2022-07-18T05:43:56;100135.50;;;15.90;73.06
61757;BME280;57225;61.460;24.060;2022-07-18T05:46:41;100132.69;;;15.90;71.33
61757;BME280;57225;61.460;24.060;2022-07-18T05:49:26;100134.59;;;16.09;71.30
61757;BME280;57225;61.460;24.060;2022-07-18T05:52:10;100138.28;;;16.22;73.29
61757;BME280;57225;61.460;24.060;2022-07-18T05:54:54;100139.28;;;16.44;72.38
61757;BME280;57225;61.460;24.060;2022-07-18T05:57:38;100134.56;;;16.41;69.86
61757;BME280;57225;61.460;24.060;2022-07-18T06:00:23;100135.00;;;16.56;70.47
61757;BME280;57225;61.460;24.060;2022-07-18T06:03:07;100136.28;;;16.68;68.99
61757;BME280;57225;61.460;24.060;2022-07-18T06:05:52;100124.28;;;16.80;68.70
61757;BME280;57225;61.460;24.060;2022-07-18T06:08:36;100130.63;;;16.97;69.20
61757;BME280;57225;61.460;24.060;2022-07-18T06:11:21;100135.41;;;17.12;67.45
61757;BME280;57225;61.460;24.060;2022-07-18T06:14:06;100128.31;;;17.20;66.60
61757;BME280;57225;61.460;24.060;2022-07-18T06:16:50;100125.25;;;17.02;65.30
61757;BME280;57225;61.460;24.060;2022-07-18T06:19:34;100124.44;;;17.02;65.30
61757;BME280;57225;61.460;24.060;2022-07-18T06:22:19;100132.66;;;16.96;64.51
61757;BME280;57225;61.460;24.060;2022-07-18T06:25:05;100125.16;;;16.77;64.92
61757;BME280;57225;61.460;24.060;2022-07-18T06:27:49;100123.53;;;16.92;65.66
61757;BME280;57225;61.460;24.060;2022-07-18T06:30:34;100130.03;;;17.18;63.84
61757;BME280;57225;61.460;24.060;2022-07-18T06:33:18;100117.19;;;17.42;64.33
61757;BME280;57225;61.460;24.060;2022-07-18T06:36:03;100123.72;;;17.52;63.12
61757;BME280;57225;61.460;24.060;2022-07-18T06:38:50;100136.25;;;17.51;63.50
61757;BME280;57225;61.460;24.060;2022-07-18T06:41:35;100131.81;;;17.12;61.34
61757;BME280;57225;61.460;24.060;2022-07-18T06:44:19;100129.09;;;17.08;64.55
61757;BME280;57225;61.460;24.060;2022-07-18T06:47:04;100129.00;;;17.24;64.85
61757;BME280;57225;61.460;24.060;2022-07-18T06:49:48;100132.06;;;17.43;63.14
61757;BME280;57225;61.460;24.060;2022-07-18T06:52:33;100135.03;;;17.64;61.66
61757;BME280;57225;61.460;24.060;2022-07-18T06:55:18;100134.56;;;17.53;61.88
61757;BME280;57225;61.460;24.060;2022-07-18T06:58:02;100135.16;;;17.61;60.73
61757;BME280;57225;61.460;24.060;2022-07-18T07:00:47;100132.91;;;17.81;62.93
61757;BME280;57225;61.460;24.060;2022-07-18T07:03:31;100140.78;;;17.74;61.12
61757;BME280;57225;61.460;24.060;2022-07-18T07:06:16;100137.53;;;17.88;60.72
61757;BME280;57225;61.460;24.060;2022-07-18T07:09:00;100136.97;;;17.67;61.39
61757;BME280;57225;61.460;24.060;2022-07-18T07:11:45;100141.66;;;17.58;62.39
61757;BME280;57225;61.460;24.060;2022-07-18T07:14:29;100131.72;;;17.53;61.63
61757;BME280;57225;61.460;24.060;2022-07-18T07:17:13;100135.47;;;17.38;62.24
61757;BME280;57225;61.460;24.060;2022-07-18T07:19:58;100132.84;;;17.31;62.85
61757;BME280;57225;61.460;24.060;2022-07-18T07:22:50;100143.56;;;17.48;64.83
61757;BME280;57225;61.460;24.060;2022-07-18T07:25:37;100142.38;;;17.62;63.38
61757;BME280;57225;61.460;24.060;2022-07-18T07:28:22;100143.84;;;17.66;62.07
61757;BME280;57225;61.460;24.060;2022-07-18T07:31:06;100140.34;;;17.75;61.39
61757;BME280;57225;61.460;24.060;2022-07-18T07:33:50;100144.16;;;18.06;63.57
61757;BME280;57225;61.460;24.060;2022-07-18T07:36:35;100145.63;;;17.98;61.98
61757;BME280;57225;61.460;24.060;2022-07-18T07:39:19;100137.94;;;17.99;62.61
61757;BME280;57225;61.460;24.060;2022-07-18T07:42:04;100149.75;;;18.32;62.31
61757;BME280;57225;61.460;24.060;2022-07-18T07:44:48;100147.22;;;18.34;60.91
61757;BME280;57225;61.460;24.060;2022-07-18T07:47:34;100145.00;;;18.29;61.48
61757;BME280;57225;61.460;24.060;2022-07-18T07:50:18;100138.06;;;18.55;60.71
61757;BME280;57225;61.460;24.060;2022-07-18T07:53:03;100151.19;;;18.36;59.06
61757;BME280;57225;61.460;24.060;2022-07-18T07:55:47;100145.88;;;18.73;58.70
61757;BME280;57225;61.460;24.060;2022-07-18T07:58:34;100139.59;;;18.91;58.27
61757;BME280;57225;61.460;24.060;2022-07-18T08:01:18;100138.88;;;18.99;57.94
61757;BME280;57225;61.460;24.060;2022-07-18T08:04:03;100139.28;;;19.41;59.13
61757;BME280;57225;61.460;24.060;2022-07-18T08:06:48;100141.59;;;19.34;55.80
61757;BME280;57225;61.460;24.060;2022-07-18T08:09:32;100135.91;;;19.46;59.20
61757;BME280;57225;61.460;24.060;2022-07-18T08:12:17;100135.41;;;18.95;56.82
61757;BME280;57225;61.460;24.060;2022-07-18T08:15:01;100140.00;;;19.02;57.36
61757;BME280;57225;61.460;24.060;2022-07-18T08:17:47;100137.28;;;18.98;59.16
61757;BME280;57225;61.460;24.060;2022-07-18T08:20:31;100136.19;;;18.96;58.91
61757;BME280;57225;61.460;24.060;2022-07-18T08:23:17;100144.78;;;18.70;58.34
61757;BME280;57225;61.460;24.060;2022-07-18T08:26:03;100139.84;;;18.62;58.22
61757;BME280;57225;61.460;24.060;2022-07-18T08:28:47;100132.66;;;18.82;59.47
61757;BME280;57225;61.460;24.060;2022-07-18T08:31:32;100131.56;;;19.11;58.80
61757;BME280;57225;61.460;24.060;2022-07-18T08:34:16;100131.84;;;19.56;59.77
61757;BME280;57225;61.460;24.060;2022-07-18T08:37:01;100128.22;;;19.96;55.55
61757;BME280;57225;61.460;24.060;2022-07-18T08:39:45;100134.63;;;20.36;56.98
61757;BME280;57225;61.460;24.060;2022-07-18T08:42:32;100132.09;;;20.38;55.26
61757;BME280;57225;61.460;24.060;2022-07-18T08:45:20;100132.66;;;20.06;56.28
61757;BME280;57225;61.460;24.060;2022-07-18T08:48:06;100133.16;;;19.74;54.63
61757;BME280;57225;61.460;24.060;2022-07-18T08:50:50;100124.16;;;20.06;55.48
61757;BME280;57225;61.460;24.060;2022-07-18T08:53:35;100131.31;;;19.80;53.49
61757;BME280;57225;61.460;24.060;2022-07-18T08:56:21;100124.28;;;19.93;53.57
61757;BME280;57225;61.460;24.060;2022-07-18T08:59:06;100118.34;;;19.60;54.90
61757;BME280;57225;61.460;24.060;2022-07-18T09:01:50;100132.19;;;19.58;55.02
61757;BME280;57225;61.460;24.060;2022-07-18T09:04:39;100130.00;;;19.62;54.76
61757;BME280;57225;61.460;24.060;2022-07-18T09:07:29;100138.25;;;19.79;56.16
61757;BME280;57225;61.460;24.060;2022-07-18T09:10:14;100128.78;;;19.73;55.53
61757;BME280;57225;61.460;24.060;2022-07-18T09:12:58;100132.06;;;19.71;56.10
61757;BME280;57225;61.460;24.060;2022-07-18T09:16:04;100126.81;;;19.51;57.38
61757;BME280;57225;61.460;24.060;2022-07-18T09:18:48;100127.38;;;18.94;57.22
61757;BME280;57225;61.460;24.060;2022-07-18T09:21:36;100124.81;;;19.08;58.17
61757;BME280;57225;61.460;24.060;2022-07-18T09:24:20;100121.94;;;19.30;59.91
61757;BME280;57225;61.460;24.060;2022-07-18T09:27:22;100119.47;;;20.30;57.77
61757;BME280;57225;61.460;24.060;2022-07-18T09:30:20;100123.44;;;20.97;55.87
61757;BME280;57225;61.460;24.060;2022-07-18T09:33:08;100116.72;;;21.54;51.78
61757;BME280;57225;61.460;24.060;2022-07-18T09:35:54;100115.66;;;22.09;47.07
61757;BME280;57225;61.460;24.060;2022-07-18T09:38:39;100111.13;;;22.73;47.79
61757;BME280;57225;61.460;24.060;2022-07-18T09:41:29;100114.13;;;22.70;46.75
61757;BME280;57225;61.460;24.060;2022-07-18T09:44:17;100113.91;;;22.35;45.67
61757;BME280;57225;61.460;24.060;2022-07-18T09:47:03;100117.00;;;21.98;50.57
61757;BME280;57225;61.460;24.060;2022-07-18T09:49:48;100112.50;;;21.41;48.05
61757;BME280;57225;61.460;24.060;2022-07-18T09:52:32;100115.53;;;21.19;48.84
61757;BME280;57225;61.460;24.060;2022-07-18T09:55:19;100104.00;;;21.41;48.31
61757;BME280;57225;61.460;24.060;2022-07-18T09:58:05;100110.69;;;21.61;48.41
61757;BME280;57225;61.460;24.060;2022-07-18T10:00:53;100115.19;;;21.77;50.73
61757;BME280;57225;61.460;24.060;2022-07-18T10:03:38;100109.41;;;21.62;48.64
61757;BME280;57225;61.460;24.060;2022-07-18T10:06:23;100114.16;;;21.56;50.34
61757;BME280;57225;61.460;24.060;2022-07-18T10:09:07;100113.72;;;21.82;50.24
61757;BME280;57225;61.460;24.060;2022-07-18T10:11:53;100111.34;;;21.89;50.55
61757;BME280;57225;61.460;24.060;2022-07-18T10:14:38;100108.41;;;22.08;50.75
61757;BME280;57225;61.460;24.060;2022-07-18T10:17:23;100106.34;;;21.75;51.23
61757;BME280;57225;61.460;24.060;2022-07-18T10:20:08;100104.22;;;21.19;50.13
61757;BME280;57225;61.460;24.060;2022-07-18T10:22:56;100110.00;;;21.34;50.04
61757;BME280;57225;61.460;24.060;2022-07-18T10:25:42;100109.75;;;21.88;47.94
61757;BME280;57225;61.460;24.060;2022-07-18T10:28:28;100110.13;;;21.81;45.93
61757;BME280;57225;61.460;24.060;2022-07-18T10:31:14;100103.47;;;21.84;48.00
61757;BME280;57225;61.460;24.060;2022-07-18T10:39:42;100104.66;;;22.73;46.10
61757;BME280;57225;61.460;24.060;2022-07-18T10:42:28;100112.22;;;23.05;43.58
61757;BME280;57225;61.460;24.060;2022-07-18T10:45:45;100105.44;;;22.73;45.29
61757;BME280;57225;61.460;24.060;2022-07-18T10:51:28;100103.91;;;22.25;47.61
61757;BME280;57225;61.460;24.060;2022-07-18T10:54:13;100106.25;;;22.26;46.70
61757;BME280;57225;61.460;24.060;2022-07-18T11:00:13;100109.50;;;21.77;46.19
61757;BME280;57225;61.460;24.060;2022-07-18T11:03:06;100104.81;;;21.74;46.91
61757;BME280;57225;61.460;24.060;2022-07-18T11:05:53;100109.47;;;21.86;47.65
61757;BME280;57225;61.460;24.060;2022-07-18T11:08:39;100095.53;;;22.45;48.10
61757;BME280;57225;61.460;24.060;2022-07-18T11:11:23;100096.06;;;23.11;44.16
61757;BME280;57225;61.460;24.060;2022-07-18T11:14:07;100101.66;;;23.06;45.74
61757;BME280;57225;61.460;24.060;2022-07-18T11:17:04;100104.41;;;22.62;46.45
61757;BME280;57225;61.460;24.060;2022-07-18T11:20:51;100110.19;;;22.29;46.76
61757;BME280;57225;61.460;24.060;2022-07-18T11:23:22;100106.44;;;21.57;46.47
61757;BME280;57225;61.460;24.060;2022-07-18T11:26:14;100103.44;;;21.09;47.09
61757;BME280;57225;61.460;24.060;2022-07-18T11:29:01;100105.81;;;21.02;46.42
61757;BME280;57225;61.460;24.060;2022-07-18T11:31:52;100103.75;;;20.93;47.92
61757;BME280;57225;61.460;24.060;2022-07-18T11:34:37;100103.78;;;20.38;49.78
61757;BME280;57225;61.460;24.060;2022-07-18T11:37:21;100102.53;;;20.76;51.27
61757;BME280;57225;61.460;24.060;2022-07-18T11:40:07;100101.06;;;21.68;46.41
61757;BME280;57225;61.460;24.060;2022-07-18T11:42:56;100100.09;;;21.71;45.78
61757;BME280;57225;61.460;24.060;2022-07-18T11:45:41;100094.44;;;21.20;46.71
61757;BME280;57225;61.460;24.060;2022-07-18T11:48:25;100097.81;;;20.91;49.33
61757;BME280;57225;61.460;24.060;2022-07-18T11:51:17;100097.34;;;20.47;50.32
61757;BME280;57225;61.460;24.060;2022-07-18T11:54:02;100103.13;;;20.25;50.16
61757;BME280;57225;61.460;24.060;2022-07-18T11:56:49;100106.88;;;20.04;52.55
61757;BME280;57225;61.460;24.060;2022-07-18T11:59:41;100112.78;;;19.79;55.89
61757;BME280;57225;61.460;24.060;2022-07-18T12:05:52;100115.22;;;19.58;59.93
61757;BME280;57225;61.460;24.060;2022-07-18T12:08:42;100110.69;;;19.39;62.91
61757;BME280;57225;61.460;24.060;2022-07-18T12:11:37;100125.38;;;19.25;62.92
61757;BME280;57225;61.460;24.060;2022-07-18T12:14:22;100125.19;;;18.98;63.18
61757;BME280;57225;61.460;24.060;2022-07-18T12:17:07;100137.69;;;18.53;64.79
61757;BME280;57225;61.460;24.060;2022-07-18T12:19:51;100149.44;;;18.04;70.37
61757;BME280;57225;61.460;24.060;2022-07-18T12:23:02;100143.47;;;17.64;69.61
61757;BME280;57225;61.460;24.060;2022-07-18T12:25:44;100131.97;;;17.59;74.30
61757;BME280;57225;61.460;24.060;2022-07-18T12:28:31;100119.34;;;17.38;77.63
61757;BME280;57225;61.460;24.060;2022-07-18T12:31:38;100119.38;;;17.63;77.34
61757;BME280;57225;61.460;24.060;2022-07-18T12:34:23;100113.38;;;17.74;75.71
61757;BME280;57225;61.460;24.060;2022-07-18T12:37:07;100109.13;;;17.70;76.45
61757;BME280;57225;61.460;24.060;2022-07-18T12:40:07;100109.34;;;17.62;78.10
61757;BME280;57225;61.460;24.060;2022-07-18T12:43:04;100106.16;;;17.73;78.01
61757;BME280;57225;61.460;24.060;2022-07-18T12:45:50;100099.97;;;17.78;79.21
61757;BME280;57225;61.460;24.060;2022-07-18T12:48:35;100106.06;;;18.24;79.32
61757;BME280;57225;61.460;24.060;2022-07-18T12:51:19;100104.78;;;18.72;75.40
61757;BME280;57225;61.460;24.060;2022-07-18T12:54:03;100104.00;;;18.93;73.90
61757;BME280;57225;61.460;24.060;2022-07-18T12:56:48;100099.72;;;18.88;73.94
61757;BME280;57225;61.460;24.060;2022-07-18T12:59:32;100105.25;;;18.92;72.74
61757;BME280;57225;61.460;24.060;2022-07-18T13:02:18;100110.53;;;19.12;71.99
61757;BME280;57225;61.460;24.060;2022-07-18T13:05:03;100106.94;;;19.42;71.40
61757;BME280;57225;61.460;24.060;2022-07-18T13:07:47;100102.06;;;19.43;70.88
61757;BME280;57225;61.460;24.060;2022-07-18T13:10:32;100101.84;;;19.28;65.71
61757;BME280;57225;61.460;24.060;2022-07-18T13:13:16;100096.22;;;19.28;68.14
61757;BME280;57225;61.460;24.060;2022-07-18T13:16:01;100096.88;;;19.72;70.05
61757;BME280;57225;61.460;24.060;2022-07-18T13:18:45;100101.06;;;20.07;69.82
61757;BME280;57225;61.460;24.060;2022-07-18T13:21:30;100102.81;;;20.23;67.42
61757;BME280;57225;61.460;24.060;2022-07-18T13:24:14;100107.44;;;20.48;68.83
61757;BME280;57225;61.460;24.060;2022-07-18T13:26:59;100097.31;;;20.74;63.81
61757;BME280;57225;61.460;24.060;2022-07-18T13:29:46;100092.78;;;20.86;61.62
61757;BME280;57225;61.460;24.060;2022-07-18T13:32:31;100102.03;;;20.86;57.87
61757;BME280;57225;61.460;24.060;2022-07-18T13:35:15;100100.28;;;21.07;61.80
61757;BME280;57225;61.460;24.060;2022-07-18T13:38:00;100090.03;;;21.28;62.96
61757;BME280;57225;61.460;24.060;2022-07-18T13:40:44;100095.50;;;21.32;62.04
61757;BME280;57225;61.460;24.060;2022-07-18T13:43:28;100092.84;;;21.28;62.42
61757;BME280;57225;61.460;24.060;2022-07-18T13:46:13;100091.84;;;20.80;61.49
61757;BME280;57225;61.460;24.060;2022-07-18T13:48:59;100098.13;;;20.75;63.74
61757;BME280;57225;61.460;24.060;2022-07-18T13:51:43;100086.63;;;20.69;64.12
61757;BME280;57225;61.460;24.060;2022-07-18T13:54:28;100083.97;;;20.57;63.69
61757;BME280;57225;61.460;24.060;2022-07-18T13:57:12;100084.16;;;20.53;64.15
61757;BME280;57225;61.460;24.060;2022-07-18T13:59:57;100089.16;;;20.49;65.09
61757;BME280;57225;61.460;24.060;2022-07-18T14:02:41;100085.38;;;20.43;65.05
61757;BME280;57225;61.460;24.060;2022-07-18T14:05:26;100088.38;;;20.39;64.15
61757;BME280;57225;61.460;24.060;2022-07-18T14:08:10;100081.41;;;20.31;63.92
61757;BME280;57225;61.460;24.060;2022-07-18T14:10:54;100087.53;;;20.30;64.53
61757;BME280;57225;61.460;24.060;2022-07-18T14:13:39;100083.00;;;20.23;64.55
61757;BME280;57225;61.460;24.060;2022-07-18T14:16:23;100077.50;;;20.11;64.69
61757;BME280;57225;61.460;24.060;2022-07-18T14:19:08;100078.88;;;19.97;64.03
61757;BME280;57225;61.460;24.060;2022-07-18T14:21:53;100072.56;;;19.93;65.65
61757;BME280;57225;61.460;24.060;2022-07-18T14:24:38;100077.09;;;19.81;67.42
61757;BME280;57225;61.460;24.060;2022-07-18T14:27:22;100077.75;;;19.85;67.86
61757;BME280;57225;61.460;24.060;2022-07-18T14:30:09;100078.88;;;19.97;65.47